Warnow Moon — A8VX3 — position and weather

sailwx.info

Track history (hours):
 
Tides and Currents Weather Stations Pressure Air Temp Water Temp Dewpoint Dewpoint Depression Visibility Wind Speed Wind Dir Waves Ship Positions

Warnow Moon

Last reported at 2016-Mar-29 08:33 UTC. Time now 2016-Apr-28 21:54 UTC.
Position N 29°35' W 094°56'.
Warning: this ship's position is 30 days out of date.

Length 180 m; draft 10.7 m.

Type: Cargo ship. MMSI: 636016909.

Date/timePositionNaut miles runAvg speedWind from/ knotsBaromVisibWave heightAir tempDewpointWater temp
2016-Mar-29 08:33N 29°35' W 094°56'10 9.9
2016-Mar-29 07:33N 29°43' W 095°01'5 0.7
2016-Mar-29 00:31N 29°44' W 095°07'0 0.0
2016-Mar-28 23:31N 29°44' W 095°07'0 0.0
2016-Mar-28 22:31N 29°44' W 095°07'0 0.0
2016-Mar-28 21:31N 29°44' W 095°07'0 0.0
2016-Mar-28 20:31N 29°44' W 095°07'0 0.0
2016-Mar-28 19:19N 29°44' W 095°07'0 0.0
2016-Mar-28 18:31N 29°44' W 095°07'0 0.0
2016-Mar-28 17:31N 29°44' W 095°07'0 0.0
2016-Mar-28 16:31N 29°44' W 095°07'0 0.0
2016-Mar-28 15:31N 29°44' W 095°07'0 0.0
2016-Mar-28 14:31N 29°44' W 095°07'0 0.0
2016-Mar-28 13:31N 29°44' W 095°07'0 0.0
2016-Mar-28 12:31N 29°44' W 095°07'0 0.0
2016-Mar-28 11:31N 29°44' W 095°07'0 0.0
2016-Mar-28 10:31N 29°44' W 095°07'0 0.0
2016-Mar-28 09:31N 29°44' W 095°07'0 0.0
2016-Mar-28 08:31N 29°44' W 095°07'0 0.0
2016-Mar-28 07:28N 29°44' W 095°07'0 0.0
2016-Mar-28 06:31N 29°44' W 095°07'0 0.0
2016-Mar-28 05:31N 29°44' W 095°07'0 0.0
2016-Mar-28 04:31N 29°44' W 095°07'0 0.0
2016-Mar-28 03:31N 29°44' W 095°07'0 0.0
2016-Mar-28 02:31N 29°44' W 095°07'0 0.0
2016-Mar-28 01:31N 29°44' W 095°07'0 0.0
2016-Mar-28 00:25N 29°44' W 095°07'0 0.0
2016-Mar-27 23:31N 29°44' W 095°07'0 0.0
2016-Mar-27 22:31N 29°44' W 095°07'0 0.0
2016-Mar-27 21:31N 29°44' W 095°07'0 0.0
2016-Mar-27 20:31N 29°44' W 095°07'0 0.0
2016-Mar-27 19:31N 29°44' W 095°07'0 0.0
2016-Mar-27 18:28N 29°44' W 095°07'0 0.0
2016-Mar-27 17:31N 29°44' W 095°07'0 0.0
2016-Mar-27 16:28N 29°44' W 095°07'0 0.0
2016-Mar-27 15:31N 29°44' W 095°07'0 0.0
2016-Mar-27 14:31N 29°44' W 095°07'0 0.0
2016-Mar-27 13:31N 29°44' W 095°07'0 0.0
2016-Mar-27 12:28N 29°44' W 095°07'0 0.0
2016-Mar-27 11:31N 29°44' W 095°07'0 0.0
2016-Mar-27 10:31N 29°44' W 095°07'0 0.0
2016-Mar-27 09:31N 29°44' W 095°07'0 0.0
2016-Mar-27 08:31N 29°44' W 095°07'0 0.0
2016-Mar-27 07:31N 29°44' W 095°07'0 0.0
2016-Mar-27 06:31N 29°44' W 095°07'0 0.0
2016-Mar-27 05:31N 29°44' W 095°07'0 0.0
2016-Mar-27 04:31N 29°44' W 095°07'0 0.0
2016-Mar-27 03:31N 29°44' W 095°07'2 2.0
2016-Mar-27 02:33N 29°44' W 095°09'5 4.8
2016-Mar-27 01:31N 29°43' W 095°15'  
2016-Mar-24 04:33N 29°43' W 095°15'5 4.8
2016-Mar-24 03:33N 29°44' W 095°10'5 5.2
2016-Mar-24 02:33N 29°44' W 095°03'9 8.6
2016-Mar-24 01:33N 29°37' W 094°58'1110.8
2016-Mar-24 00:33N 29°28' W 094°51'  
Track history (hours):
 
Tides and Currents Weather Stations Pressure Air Temp Water Temp Dewpoint Dewpoint Depression Visibility Wind Speed Wind Dir Waves Ship Positions

Warnow Moon

Last reported at 2016-Mar-29 08:33 UTC. Time now 2016-Apr-28 21:54 UTC.
Position N 29°35' W 094°56'.
Warning: this ship's position is 30 days out of date.

Length 180 m; draft 10.7 m.

Type: Cargo ship. MMSI: 636016909.

Date/timePositionNaut miles runAvg speedWind from/ knotsBaromVisibWave heightAir tempDewpointWater temp
2016-Mar-29 08:33N 29°35' W 094°56'10 9.9
2016-Mar-29 07:33N 29°43' W 095°01'5 0.7
2016-Mar-29 00:31N 29°44' W 095°07'0 0.0
2016-Mar-28 23:31N 29°44' W 095°07'0 0.0
2016-Mar-28 22:31N 29°44' W 095°07'0 0.0
2016-Mar-28 21:31N 29°44' W 095°07'0 0.0
2016-Mar-28 20:31N 29°44' W 095°07'0 0.0
2016-Mar-28 19:19N 29°44' W 095°07'0 0.0
2016-Mar-28 18:31N 29°44' W 095°07'0 0.0
2016-Mar-28 17:31N 29°44' W 095°07'0 0.0
2016-Mar-28 16:31N 29°44' W 095°07'0 0.0
2016-Mar-28 15:31N 29°44' W 095°07'0 0.0
2016-Mar-28 14:31N 29°44' W 095°07'0 0.0
2016-Mar-28 13:31N 29°44' W 095°07'0 0.0
2016-Mar-28 12:31N 29°44' W 095°07'0 0.0
2016-Mar-28 11:31N 29°44' W 095°07'0 0.0
2016-Mar-28 10:31N 29°44' W 095°07'0 0.0
2016-Mar-28 09:31N 29°44' W 095°07'0 0.0
2016-Mar-28 08:31N 29°44' W 095°07'0 0.0
2016-Mar-28 07:28N 29°44' W 095°07'0 0.0
2016-Mar-28 06:31N 29°44' W 095°07'0 0.0
2016-Mar-28 05:31N 29°44' W 095°07'0 0.0
2016-Mar-28 04:31N 29°44' W 095°07'0 0.0
2016-Mar-28 03:31N 29°44' W 095°07'0 0.0
2016-Mar-28 02:31N 29°44' W 095°07'0 0.0
2016-Mar-28 01:31N 29°44' W 095°07'0 0.0
2016-Mar-28 00:25N 29°44' W 095°07'0 0.0
2016-Mar-27 23:31N 29°44' W 095°07'0 0.0
2016-Mar-27 22:31N 29°44' W 095°07'0 0.0
2016-Mar-27 21:31N 29°44' W 095°07'0 0.0
2016-Mar-27 20:31N 29°44' W 095°07'0 0.0
2016-Mar-27 19:31N 29°44' W 095°07'0 0.0
2016-Mar-27 18:28N 29°44' W 095°07'0 0.0
2016-Mar-27 17:31N 29°44' W 095°07'0 0.0
2016-Mar-27 16:28N 29°44' W 095°07'0 0.0
2016-Mar-27 15:31N 29°44' W 095°07'0 0.0
2016-Mar-27 14:31N 29°44' W 095°07'0 0.0
2016-Mar-27 13:31N 29°44' W 095°07'0 0.0
2016-Mar-27 12:28N 29°44' W 095°07'0 0.0
2016-Mar-27 11:31N 29°44' W 095°07'0 0.0
2016-Mar-27 10:31N 29°44' W 095°07'0 0.0
2016-Mar-27 09:31N 29°44' W 095°07'0 0.0
2016-Mar-27 08:31N 29°44' W 095°07'0 0.0
2016-Mar-27 07:31N 29°44' W 095°07'0 0.0
2016-Mar-27 06:31N 29°44' W 095°07'0 0.0
2016-Mar-27 05:31N 29°44' W 095°07'0 0.0
2016-Mar-27 04:31N 29°44' W 095°07'0 0.0
2016-Mar-27 03:31N 29°44' W 095°07'2 2.0
2016-Mar-27 02:33N 29°44' W 095°09'5 4.8
2016-Mar-27 01:31N 29°43' W 095°15'  
2016-Mar-24 04:33N 29°43' W 095°15'5 4.8
2016-Mar-24 03:33N 29°44' W 095°10'5 5.2
2016-Mar-24 02:33N 29°44' W 095°03'9 8.6
2016-Mar-24 01:33N 29°37' W 094°58'1110.8
2016-Mar-24 00:33N 29°28' W 094°51'  

Dump ship's entire track history